Time;durP1;ratioP1;P1;durP2;ratioP2;P2;SDS_P1;SDS_P2;PMS_P1;PMS_P2;Temp;Humidity;BMP_temperature;BMP_pressure;BME280_temperature;BME280_humidity;BME280_pressure;Samples;Min_cycle;Max_cycle;Signal;HPM_P1;HPM_P2
2021/06/19 00:01:12;;;;;;;12.60;8.32;;;27.00;67.70;;;;;;5042934;28;20188;-89
2021/06/19 00:03:38;;;;;;;9.15;8.07;;;27.20;67.30;;;;;;5061426;28;20674;-89
2021/06/19 00:06:04;;;;;;;11.13;8.40;;;27.10;66.90;;;;;;5060574;28;20517;-89
2021/06/19 00:08:29;;;;;;;10.82;8.45;;;27.20;67.60;;;;;;5061483;28;20207;-89
2021/06/19 00:10:56;;;;;;;9.95;7.75;;;27.10;68.00;;;;;;5059482;28;20184;-90
2021/06/19 00:13:21;;;;;;;12.05;8.82;;;27.10;68.00;;;;;;5059717;28;20203;-90
2021/06/19 00:15:47;;;;;;;10.18;8.10;;;27.10;69.20;;;;;;5059011;28;20207;-89
2021/06/19 00:18:13;;;;;;;10.75;8.05;;;27.10;68.90;;;;;;5060194;28;20200;-89
2021/06/19 00:20:39;;;;;;;10.57;8.43;;;26.90;68.20;;;;;;5060262;28;20707;-90
2021/06/19 00:23:05;;;;;;;12.23;7.88;;;26.70;68.80;;;;;;5060178;28;20574;-89
2021/06/19 00:25:31;;;;;;;9.82;8.07;;;26.60;69.70;;;;;;5059409;28;20238;-89
2021/06/19 00:27:56;;;;;;;9.35;7.97;;;26.60;69.40;;;;;;5060561;28;20229;-90
2021/06/19 00:30:23;;;;;;;10.30;8.43;;;26.60;69.60;;;;;;5060149;28;20188;-90
2021/06/19 00:32:50;;;;;;;11.20;7.75;;;26.60;70.20;;;;;;5059537;28;20200;-89
2021/06/19 00:35:16;;;;;;;12.10;8.70;;;26.40;70.90;;;;;;5059684;28;20295;-89
2021/06/19 00:37:42;;;;;;;9.05;8.15;;;26.30;71.10;;;;;;5061316;28;20208;-89
2021/06/19 00:40:11;;;;;;;12.32;8.60;;;26.30;71.60;;;;;;5063908;28;20208;-89
2021/06/19 00:42:38;;;;;;;9.85;8.40;;;26.10;73.10;;;;;;5063360;28;20169;-90
2021/06/19 00:45:05;;;;;;;11.50;8.95;;;25.90;73.20;;;;;;5063357;28;20180;-89
2021/06/19 00:47:31;;;;;;;11.18;8.90;;;25.90;72.60;;;;;;5063272;28;20674;-88
2021/06/19 00:49:56;;;;;;;12.35;9.52;;;26.00;72.90;;;;;;5045316;28;20192;-89
2021/06/19 00:52:22;;;;;;;11.38;9.07;;;25.80;72.70;;;;;;5063199;28;20666;-90
2021/06/19 00:54:48;;;;;;;9.70;8.70;;;26.00;73.00;;;;;;5043874;28;20663;-89
2021/06/19 00:57:14;;;;;;;10.05;8.45;;;26.10;72.20;;;;;;5027494;28;20176;-88
2021/06/19 00:59:42;;;;;;;15.25;9.32;;;26.30;71.60;;;;;;5043488;28;20161;-89
2021/06/19 01:02:07;;;;;;;12.48;9.25;;;26.20;72.50;;;;;;5049439;28;20181;-89
2021/06/19 01:04:33;;;;;;;10.55;8.43;;;26.30;72.30;;;;;;5043931;28;20216;-89
2021/06/19 01:06:59;;;;;;;10.57;9.23;;;26.30;71.30;;;;;;5058133;28;20195;-88
2021/06/19 01:09:25;;;;;;;9.55;8.65;;;26.40;71.70;;;;;;5062952;28;20176;-89
2021/06/19 01:11:52;;;;;;;13.55;9.38;;;26.50;71.20;;;;;;5073141;28;20195;-89
2021/06/19 01:14:18;;;;;;;12.10;8.90;;;26.20;72.10;;;;;;5064137;28;20192;-89
2021/06/19 01:16:47;;;;;;;9.88;8.90;;;26.10;73.10;;;;;;5064247;28;20215;-89
2021/06/19 01:19:14;;;;;;;10.13;8.90;;;26.10;73.10;;;;;;5029204;28;20654;-89
2021/06/19 01:21:40;;;;;;;9.48;8.45;;;26.10;74.00;;;;;;5062529;28;20196;-89
2021/06/19 01:24:11;;;;;;;9.45;8.55;;;25.80;73.70;;;;;;5062480;28;20192;-89
2021/06/19 01:26:37;;;;;;;10.05;9.15;;;25.80;73.80;;;;;;5062257;28;20184;-88
2021/06/19 01:29:03;;;;;;;11.95;9.50;;;25.80;73.60;;;;;;5062054;28;20769;-89
2021/06/19 01:31:31;;;;;;;12.30;9.48;;;25.90;73.50;;;;;;5062117;28;20184;-90
2021/06/19 01:33:57;;;;;;;10.23;9.23;;;25.70;74.00;;;;;;5062425;28;20721;-89
2021/06/19 01:36:24;;;;;;;10.13;9.23;;;25.60;74.30;;;;;;5044629;28;20267;-89
2021/06/19 01:38:52;;;;;;;14.02;10.20;;;25.60;74.50;;;;;;5062829;28;20180;-90
2021/06/19 01:41:27;;;;;;;13.20;9.73;;;25.60;74.50;;;;;;5044140;28;20184;-89
2021/06/19 01:44:10;;;;;;;11.13;9.05;;;25.60;74.40;;;;;;5062327;28;20283;-89
2021/06/19 01:46:39;;;;;;;10.07;9.18;;;25.60;74.20;;;;;;5061877;28;20180;-89
2021/06/19 01:49:05;;;;;;;11.65;9.52;;;25.20;76.00;;;;;;5060838;28;20290;-88
2021/06/19 01:51:30;;;;;;;9.95;8.63;;;24.70;78.20;;;;;;5044037;28;20223;-89
2021/06/19 01:53:57;;;;;;;9.43;8.38;;;24.60;79.00;;;;;;5066990;28;20275;-89
2021/06/19 01:56:23;;;;;;;11.90;8.80;;;24.60;78.60;;;;;;5080638;28;20283;-88
2021/06/19 01:58:50;;;;;;;10.00;9.00;;;24.60;77.70;;;;;;5061794;28;20176;-89
2021/06/19 02:01:16;;;;;;;9.15;8.35;;;24.20;80.40;;;;;;5061767;28;20192;-89
2021/06/19 02:03:43;;;;;;;10.15;9.05;;;24.50;78.80;;;;;;5061388;28;20211;-89
2021/06/19 02:06:09;;;;;;;9.48;7.78;;;24.70;77.90;;;;;;5061601;28;20189;-89
2021/06/19 02:08:36;;;;;;;9.10;8.20;;;24.90;76.80;;;;;;5062042;28;20176;-88
2021/06/19 02:11:03;;;;;;;8.98;8.05;;;25.00;76.10;;;;;;5060981;28;20184;-89
2021/06/19 02:13:30;;;;;;;10.82;8.98;;;25.10;75.80;;;;;;5061094;28;20235;-89
2021/06/19 02:15:57;;;;;;;9.60;8.23;;;25.20;75.30;;;;;;5060835;28;20196;-89
2021/06/19 02:18:23;;;;;;;11.73;9.23;;;25.20;75.40;;;;;;5025279;28;20261;-89
2021/06/19 02:20:53;;;;;;;9.63;8.60;;;25.10;75.30;;;;;;5059261;28;20757;-89
2021/06/19 02:23:23;;;;;;;9.68;8.77;;;25.10;76.40;;;;;;5059333;28;20705;-89
2021/06/19 02:25:52;;;;;;;10.82;9.40;;;25.20;76.00;;;;;;5060079;28;20184;-89
2021/06/19 02:28:20;;;;;;;10.60;9.65;;;25.10;76.00;;;;;;5060848;28;20172;-89
2021/06/19 02:30:48;;;;;;;11.50;9.98;;;25.10;76.50;;;;;;5060640;28;20189;-89
2021/06/19 02:33:15;;;;;;;11.73;10.52;;;25.10;77.10;;;;;;5042491;28;20299;-89
2021/06/19 02:35:44;;;;;;;10.98;9.75;;;25.10;76.40;;;;;;5060483;28;20216;-89
2021/06/19 02:38:11;;;;;;;12.20;10.95;;;25.00;76.60;;;;;;5063093;28;20594;-89
2021/06/19 02:40:40;;;;;;;11.45;10.35;;;25.10;76.50;;;;;;5045441;28;20220;-89
2021/06/19 02:43:07;;;;;;;11.90;10.15;;;25.00;77.00;;;;;;5063681;28;20192;-89
2021/06/19 02:45:33;;;;;;;12.65;11.23;;;25.00;77.30;;;;;;5064535;28;20585;-89
2021/06/19 02:47:59;;;;;;;12.27;10.95;;;25.00;77.80;;;;;;5046676;28;20188;-89
2021/06/19 02:50:33;;;;;;;13.75;10.82;;;25.10;76.30;;;;;;5064176;28;20187;-89
2021/06/19 02:53:00;;;;;;;11.30;10.20;;;25.20;76.10;;;;;;5047071;28;20255;-89
2021/06/19 02:55:32;;;;;;;11.65;10.13;;;25.30;75.60;;;;;;5046437;28;20211;-89
2021/06/19 02:57:58;;;;;;;11.73;10.48;;;25.40;76.00;;;;;;5064406;28;20164;-89
2021/06/19 03:00:24;;;;;;;10.88;9.73;;;25.60;75.20;;;;;;5046622;28;20681;-89
2021/06/19 03:02:50;;;;;;;11.80;10.57;;;25.60;73.90;;;;;;5047054;28;20207;-89
2021/06/19 03:05:18;;;;;;;11.43;10.02;;;25.70;73.50;;;;;;5064498;28;20185;-89
2021/06/19 03:07:44;;;;;;;11.20;10.00;;;25.80;73.10;;;;;;5047283;28;20234;-89
2021/06/19 03:10:13;;;;;;;12.23;10.98;;;25.80;72.90;;;;;;5063801;28;20180;-89
2021/06/19 03:12:39;;;;;;;10.70;9.77;;;25.80;73.20;;;;;;5065458;28;20208;-89
2021/06/19 03:15:06;;;;;;;12.13;10.68;;;25.80;72.90;;;;;;5064691;28;20207;-89
2021/06/19 03:17:32;;;;;;;11.90;10.73;;;25.80;73.00;;;;;;5064294;28;20259;-89
2021/06/19 03:19:57;;;;;;;12.13;10.88;;;25.80;73.40;;;;;;5064201;28;20800;-89
2021/06/19 03:22:23;;;;;;;12.38;11.18;;;25.70;73.40;;;;;;5063595;28;20177;-89
2021/06/19 03:24:49;;;;;;;11.88;10.25;;;25.70;73.30;;;;;;5065356;28;20183;-89
2021/06/19 03:27:17;;;;;;;12.18;10.88;;;25.60;73.70;;;;;;5046340;28;20203;-89
2021/06/19 03:29:43;;;;;;;11.90;9.95;;;25.40;74.20;;;;;;5046573;28;20192;-88
2021/06/19 03:32:09;;;;;;;12.32;11.18;;;25.50;73.90;;;;;;5064650;28;20247;-89
2021/06/19 03:34:41;;;;;;;14.85;10.88;;;25.00;75.50;;;;;;5029595;28;20207;-89
2021/06/19 03:37:07;;;;;;;12.38;10.43;;;24.80;76.80;;;;;;5046426;28;20211;-89
2021/06/19 03:39:34;;;;;;;10.82;9.82;;;24.80;77.10;;;;;;5064343;28;20184;-89
2021/06/19 03:42:00;;;;;;;13.45;10.25;;;24.70;77.30;;;;;;5063796;28;20207;-89
2021/06/19 03:44:27;;;;;;;12.30;10.25;;;24.60;77.70;;;;;;5064120;28;20201;-89
2021/06/19 03:46:53;;;;;;;12.68;10.57;;;24.70;77.70;;;;;;5052410;28;20204;-88
2021/06/19 03:49:20;;;;;;;11.05;10.00;;;24.70;77.40;;;;;;5060287;28;20196;-88
2021/06/19 03:51:47;;;;;;;11.40;10.20;;;24.70;77.10;;;;;;5067523;28;20196;-89
2021/06/19 03:54:13;;;;;;;11.73;10.55;;;24.80;76.60;;;;;;5072675;28;20195;-89
2021/06/19 03:56:38;;;;;;;15.90;10.50;;;24.90;77.10;;;;;;5094992;28;20232;-89
2021/06/19 03:59:04;;;;;;;12.13;10.20;;;24.80;76.60;;;;;;5097923;28;20211;-88
2021/06/19 04:01:30;;;;;;;10.90;9.90;;;24.70;77.00;;;;;;5089449;28;20206;-89
2021/06/19 04:03:56;;;;;;;10.68;9.82;;;24.70;76.90;;;;;;5065608;28;20215;-89
2021/06/19 04:06:22;;;;;;;11.20;10.02;;;24.80;76.80;;;;;;5065762;28;20191;-89
2021/06/19 04:08:47;;;;;;;11.43;10.43;;;24.70;76.70;;;;;;5083113;28;20209;-89
2021/06/19 04:11:14;;;;;;;11.77;10.40;;;24.70;76.90;;;;;;5083498;28;20239;-89
2021/06/19 04:13:40;;;;;;;12.70;11.10;;;24.80;76.70;;;;;;5086231;28;20225;-89
2021/06/19 04:16:09;;;;;;;10.48;9.57;;;24.80;76.70;;;;;;5075452;28;20694;-89
2021/06/19 04:18:35;;;;;;;11.77;10.43;;;24.80;76.40;;;;;;5048930;28;20172;-90
2021/06/19 04:21:01;;;;;;;11.45;10.30;;;24.90;76.60;;;;;;5050122;28;20579;-89
2021/06/19 04:23:26;;;;;;;12.35;10.70;;;24.90;76.50;;;;;;5066312;28;20196;-90
2021/06/19 04:25:52;;;;;;;11.70;9.52;;;24.90;76.90;;;;;;5067026;28;20238;-90
2021/06/19 04:28:18;;;;;;;10.95;9.85;;;25.00;75.90;;;;;;5048812;28;20215;-90
2021/06/19 04:30:43;;;;;;;10.43;9.35;;;24.90;76.40;;;;;;5048232;28;20180;-90
2021/06/19 04:33:09;;;;;;;10.85;9.80;;;24.90;76.10;;;;;;5065907;28;20267;-89
2021/06/19 04:35:35;;;;;;;10.82;9.73;;;25.10;75.00;;;;;;5066040;28;20492;-90
2021/06/19 04:38:00;;;;;;;14.50;10.80;;;25.20;74.80;;;;;;5065841;28;20203;-89
2021/06/19 04:40:42;;;;;;;11.90;10.48;;;25.10;74.90;;;;;;5066366;28;20172;-89
2021/06/19 04:43:10;;;;;;;12.07;10.88;;;25.20;74.80;;;;;;5065672;28;20200;-90
2021/06/19 04:45:37;;;;;;;15.23;10.82;;;25.30;74.40;;;;;;5067113;28;20184;-89
2021/06/19 04:48:05;;;;;;;11.60;10.30;;;25.20;74.70;;;;;;5065977;28;20184;-90
2021/06/19 04:50:32;;;;;;;13.35;10.85;;;25.20;75.50;;;;;;5066315;28;20194;-90
2021/06/19 04:52:59;;;;;;;13.43;10.85;;;25.10;75.80;;;;;;5047868;28;20200;-90
2021/06/19 04:55:25;;;;;;;12.40;11.07;;;25.20;75.80;;;;;;5048004;28;20224;-89
2021/06/19 04:57:56;;;;;;;11.02;10.07;;;25.20;75.20;;;;;;5048363;28;20368;-89
2021/06/19 05:00:23;;;;;;;11.38;10.27;;;25.20;76.80;;;;;;5066140;28;20530;-90
2021/06/19 05:02:50;;;;;;;13.02;11.10;;;24.90;76.00;;;;;;5049932;28;20196;-89
2021/06/19 05:05:15;;;;;;;11.00;10.00;;;24.70;76.30;;;;;;5049778;28;20180;-89
2021/06/19 05:07:41;;;;;;;11.15;9.85;;;24.60;76.90;;;;;;5049094;28;20196;-90
2021/06/19 05:10:08;;;;;;;13.65;11.55;;;24.60;77.20;;;;;;5053714;28;20172;-89
2021/06/19 05:12:35;;;;;;;11.45;10.45;;;24.60;76.80;;;;;;5047859;28;20183;-89
2021/06/19 05:15:03;;;;;;;11.60;10.45;;;24.60;76.70;;;;;;5064495;28;20189;-89
2021/06/19 05:17:30;;;;;;;15.27;10.43;;;24.60;76.50;;;;;;5065998;28;20204;-89
2021/06/19 05:19:56;;;;;;;10.93;10.00;;;24.70;76.90;;;;;;5066060;28;20196;-89
2021/06/19 05:22:23;;;;;;;11.32;10.13;;;24.70;76.70;;;;;;5064315;28;20180;-90
2021/06/19 05:24:51;;;;;;;11.75;10.13;;;24.80;76.20;;;;;;5064722;28;20654;-89
2021/06/19 05:27:17;;;;;;;13.18;10.63;;;24.70;76.40;;;;;;5048016;28;20222;-89
2021/06/19 05:29:43;;;;;;;14.45;10.43;;;24.70;76.60;;;;;;5047050;28;20204;-89
2021/06/19 05:32:10;;;;;;;11.00;9.95;;;24.60;77.20;;;;;;5047007;28;20184;-89
2021/06/19 05:34:36;;;;;;;12.15;9.73;;;24.40;78.20;;;;;;5047811;28;20200;-89
2021/06/19 05:37:02;;;;;;;11.55;10.40;;;24.50;78.00;;;;;;5064949;28;20222;-89
2021/06/19 05:39:28;;;;;;;12.52;11.20;;;24.60;77.90;;;;;;5046618;28;20255;-90
2021/06/19 05:41:53;;;;;;;11.63;10.25;;;24.50;77.80;;;;;;5063520;28;20203;-89
2021/06/19 05:44:19;;;;;;;12.68;10.60;;;24.60;77.60;;;;;;5064251;28;20211;-89
2021/06/19 05:46:45;;;;;;;11.48;9.98;;;24.50;78.20;;;;;;5063707;28;20184;-89
2021/06/19 05:49:11;;;;;;;11.88;10.50;;;24.60;77.90;;;;;;5046404;28;20188;-89
2021/06/19 05:51:36;;;;;;;13.75;11.13;;;24.40;78.40;;;;;;5064243;28;20188;-89
2021/06/19 05:54:03;;;;;;;11.55;10.45;;;24.40;78.50;;;;;;5062825;28;20207;-89
2021/06/19 05:56:30;;;;;;;11.18;9.20;;;24.50;77.60;;;;;;5044595;28;20384;-89
2021/06/19 05:58:56;;;;;;;11.10;9.32;;;24.60;77.80;;;;;;5042861;28;20177;-90
2021/06/19 06:01:22;;;;;;;12.15;10.95;;;24.70;76.00;;;;;;5050934;28;20184;-90
2021/06/19 06:03:50;;;;;;;11.88;9.80;;;24.70;76.10;;;;;;5061049;28;20212;-89
2021/06/19 06:06:17;;;;;;;11.95;9.73;;;24.90;76.30;;;;;;5061000;28;20177;-89
2021/06/19 06:08:43;;;;;;;10.73;9.70;;;24.90;75.80;;;;;;5061449;28;20187;-90
2021/06/19 06:11:09;;;;;;;10.43;9.35;;;24.90;74.70;;;;;;5060960;28;20210;-90
2021/06/19 06:13:35;;;;;;;10.57;9.52;;;24.80;74.10;;;;;;5061290;28;20204;-90
2021/06/19 06:16:01;;;;;;;12.23;10.15;;;24.90;74.50;;;;;;5061945;28;20216;-90
2021/06/19 06:18:26;;;;;;;10.43;9.43;;;25.00;74.90;;;;;;5026768;28;20277;-90
2021/06/19 06:20:52;;;;;;;10.85;9.50;;;24.90;73.60;;;;;;5061282;28;20188;-90
2021/06/19 06:23:18;;;;;;;10.65;9.55;;;24.90;73.70;;;;;;5061910;28;20217;-89
2021/06/19 06:25:44;;;;;;;12.48;9.60;;;25.00;73.40;;;;;;5066173;28;20164;-91
2021/06/19 06:28:10;;;;;;;11.93;9.73;;;25.10;73.10;;;;;;5062808;28;20180;-90
2021/06/19 06:30:35;;;;;;;10.63;9.32;;;25.20;73.00;;;;;;5045660;28;20192;-91
2021/06/19 06:33:01;;;;;;;11.10;9.20;;;25.20;72.70;;;;;;5045802;28;20276;-91
2021/06/19 06:35:27;;;;;;;10.60;9.48;;;25.30;72.20;;;;;;5064495;28;20200;-90
2021/06/19 06:37:52;;;;;;;10.23;8.77;;;25.40;72.00;;;;;;5060409;28;20184;-91
2021/06/19 06:40:18;;;;;;;8.80;8.07;;;25.60;68.70;;;;;;5066793;28;20683;-91
2021/06/19 06:42:44;;;;;;;9.10;8.32;;;25.60;69.50;;;;;;5052903;28;20258;-90
2021/06/19 06:45:11;;;;;;;8.60;7.70;;;25.60;69.40;;;;;;5056209;28;20221;-89
2021/06/19 06:47:38;;;;;;;10.48;8.32;;;25.70;67.60;;;;;;5055803;28;20183;-90
2021/06/19 06:50:06;;;;;;;8.40;7.57;;;25.90;67.20;;;;;;5048628;28;20181;-91
2021/06/19 06:52:32;;;;;;;9.65;8.73;;;25.80;66.50;;;;;;5043924;28;20176;-91
2021/06/19 06:54:58;;;;;;;8.75;7.85;;;25.90;65.80;;;;;;5027414;28;20212;-92
2021/06/19 06:57:24;;;;;;;7.70;6.95;;;26.00;68.60;;;;;;5043753;28;20187;-90
2021/06/19 06:59:50;;;;;;;7.38;6.72;;;26.10;65.50;;;;;;5062779;28;20330;-91
2021/06/19 07:02:15;;;;;;;8.55;7.72;;;26.10;63.60;;;;;;5042333;28;20196;-90
2021/06/19 07:04:41;;;;;;;9.07;7.78;;;26.20;65.20;;;;;;5024391;28;20217;-91
2021/06/19 07:07:07;;;;;;;8.85;8.00;;;26.20;66.50;;;;;;5041497;28;20280;-91
2021/06/19 07:09:33;;;;;;;9.20;7.38;;;26.30;65.90;;;;;;5045049;28;20195;-92
2021/06/19 07:11:58;;;;;;;8.90;7.53;;;26.30;65.50;;;;;;5045567;28;20185;-92
2021/06/19 07:14:24;;;;;;;8.65;7.85;;;26.30;66.70;;;;;;5039151;28;20713;-92
2021/06/19 07:16:50;;;;;;;7.90;7.20;;;26.30;67.20;;;;;;5057171;28;20227;-91
2021/06/19 07:19:15;;;;;;;7.82;7.13;;;26.50;66.00;;;;;;5058639;28;20547;-92
2021/06/19 07:21:41;;;;;;;8.32;7.53;;;26.60;64.70;;;;;;5040581;28;20257;-92
2021/06/19 07:24:07;;;;;;;9.30;7.47;;;26.80;65.20;;;;;;5060222;28;20219;-91
2021/06/19 07:26:33;;;;;;;8.43;6.90;;;26.80;64.30;;;;;;5058499;28;20195;-92
2021/06/19 07:28:59;;;;;;;8.30;7.50;;;27.10;63.50;;;;;;5058317;28;20191;-92
2021/06/19 07:31:25;;;;;;;7.40;6.63;;;27.00;62.30;;;;;;5039797;28;20177;-91
2021/06/19 07:33:51;;;;;;;8.65;7.15;;;27.00;62.20;;;;;;5058289;28;20694;-92
2021/06/19 07:36:17;;;;;;;9.32;6.93;;;27.10;61.20;;;;;;5041507;28;20209;-92
2021/06/19 07:38:43;;;;;;;11.50;7.45;;;27.20;62.20;;;;;;5041620;28;20185;-92
2021/06/19 07:41:09;;;;;;;8.32;7.00;;;27.30;61.80;;;;;;5038679;28;20192;-92
2021/06/19 07:43:35;;;;;;;7.97;6.72;;;27.40;60.90;;;;;;5026005;28;20205;-92
2021/06/19 07:46:01;;;;;;;6.50;5.90;;;27.50;60.00;;;;;;5042009;28;20195;-91
2021/06/19 07:48:27;;;;;;;9.82;6.47;;;27.50;59.90;;;;;;5056826;28;20177;-92
2021/06/19 07:50:54;;;;;;;9.25;6.05;;;27.60;58.80;;;;;;5050387;28;20665;-92
2021/06/19 07:53:19;;;;;;;8.07;6.13;;;27.50;58.30;;;;;;5063210;28;20207;-92
2021/06/19 07:55:45;;;;;;;6.55;5.97;;;27.40;60.50;;;;;;5045656;28;20213;-91
2021/06/19 07:58:11;;;;;;;6.03;5.50;;;27.50;59.20;;;;;;5040867;28;20187;-92
2021/06/19 08:00:36;;;;;;;6.45;5.95;;;27.70;57.40;;;;;;5044853;28;20294;-89
2021/06/19 08:03:03;;;;;;;6.55;5.18;;;27.80;57.20;;;;;;5062234;28;20208;-89
2021/06/19 08:05:29;;;;;;;7.53;6.15;;;27.70;54.60;;;;;;5062750;28;20627;-89
2021/06/19 08:07:54;;;;;;;6.45;5.95;;;27.80;57.20;;;;;;5044417;28;20271;-89
2021/06/19 08:10:20;;;;;;;7.78;6.65;;;27.80;57.70;;;;;;5062553;28;20204;-89
2021/06/19 08:12:46;;;;;;;8.57;6.63;;;28.00;59.00;;;;;;5047170;28;20204;-90
2021/06/19 08:15:12;;;;;;;8.85;7.18;;;28.20;58.80;;;;;;5048559;28;20334;-89
2021/06/19 08:17:38;;;;;;;8.38;6.93;;;28.30;56.50;;;;;;5046286;28;20186;-88
2021/06/19 08:20:06;;;;;;;6.32;5.55;;;28.40;55.50;;;;;;5063594;28;20275;-91
2021/06/19 08:22:31;;;;;;;6.35;5.60;;;28.40;55.70;;;;;;5046543;28;20176;-91
2021/06/19 08:24:57;;;;;;;6.38;5.50;;;28.50;54.20;;;;;;5064101;28;20177;-91
2021/06/19 08:27:25;;;;;;;6.03;5.47;;;28.50;53.80;;;;;;5064505;28;20172;-91
2021/06/19 08:29:51;;;;;;;6.80;5.40;;;28.70;54.30;;;;;;5046132;28;20202;-91
2021/06/19 08:32:18;;;;;;;8.00;5.93;;;28.70;53.30;;;;;;5064149;28;20180;-91
2021/06/19 08:34:44;;;;;;;13.20;6.10;;;28.80;53.30;;;;;;5063854;28;20223;-91
2021/06/19 08:37:10;;;;;;;7.90;5.55;;;28.90;55.20;;;;;;5065470;28;20267;-88
2021/06/19 08:39:35;;;;;;;6.13;5.60;;;29.00;54.80;;;;;;5046435;28;20228;-88
2021/06/19 08:42:02;;;;;;;6.45;5.97;;;29.00;54.60;;;;;;5046298;28;20301;-88
2021/06/19 08:44:30;;;;;;;8.68;6.15;;;29.20;55.20;;;;;;5063921;28;20260;-89
2021/06/19 08:46:57;;;;;;;6.57;6.03;;;29.30;53.80;;;;;;5054484;28;20185;-91
2021/06/19 08:49:26;;;;;;;7.95;5.97;;;29.20;54.20;;;;;;5027328;28;20778;-91
2021/06/19 08:51:56;;;;;;;8.90;6.45;;;29.30;54.40;;;;;;5027139;28;20280;-90
2021/06/19 08:54:23;;;;;;;5.75;5.05;;;29.40;55.20;;;;;;5044531;28;20200;-89
2021/06/19 08:56:49;;;;;;;6.13;5.50;;;29.50;54.90;;;;;;5026144;28;20279;-92
2021/06/19 08:59:15;;;;;;;6.68;6.05;;;29.60;52.80;;;;;;5012437;28;20191;-91
2021/06/19 09:01:42;;;;;;;6.75;6.15;;;29.50;53.30;;;;;;5043581;28;20241;-91
2021/06/19 09:04:10;;;;;;;7.38;6.10;;;29.60;53.00;;;;;;5060702;28;20281;-88
2021/06/19 09:06:43;;;;;;;8.07;6.07;;;29.50;53.50;;;;;;5061014;28;20184;-87
2021/06/19 09:09:10;;;;;;;6.72;6.15;;;29.80;52.50;;;;;;5064306;28;20575;-87
2021/06/19 09:11:40;;;;;;;9.00;6.85;;;29.90;52.40;;;;;;5052581;28;20268;-88
2021/06/19 09:14:15;;;;;;;8.23;6.28;;;30.20;50.80;;;;;;5043694;28;20686;-88
2021/06/19 09:16:59;;;;;;;9.98;6.32;;;30.10;51.20;;;;;;5064146;28;20771;-88
2021/06/19 09:19:34;;;;;;;7.10;6.28;;;30.20;51.30;;;;;;5064785;28;20179;-88
2021/06/19 09:22:10;;;;;;;7.32;6.22;;;30.40;51.30;;;;;;5046717;28;20195;-88
2021/06/19 09:24:42;;;;;;;6.88;6.15;;;30.50;49.50;;;;;;5075974;28;20206;-89
2021/06/19 09:27:38;;;;;;;7.30;6.55;;;30.50;50.30;;;;;;5076766;28;20180;-88
2021/06/19 09:30:11;;;;;;;7.40;6.75;;;30.60;49.50;;;;;;5056164;28;20192;-88
2021/06/19 09:32:48;;;;;;;8.30;6.70;;;30.70;49.40;;;;;;5069462;28;20172;-88
2021/06/19 09:35:30;;;;;;;7.13;6.50;;;30.80;49.40;;;;;;5062145;28;20184;-88
2021/06/19 09:37:57;;;;;;;8.05;7.25;;;30.80;48.80;;;;;;5067648;28;20189;-88
2021/06/19 09:40:45;;;;;;;8.57;7.75;;;30.80;49.60;;;;;;5061785;28;20552;-87
2021/06/19 09:43:25;;;;;;;8.15;7.35;;;31.00;50.70;;;;;;5062542;28;20220;-87
2021/06/19 09:46:09;;;;;;;8.00;6.70;;;31.10;50.40;;;;;;5063949;28;20252;-87
2021/06/19 09:48:38;;;;;;;7.45;6.65;;;31.20;49.10;;;;;;5064035;28;20675;-88
2021/06/19 09:51:10;;;;;;;10.38;6.78;;;31.20;49.80;;;;;;5065881;28;20253;-87
2021/06/19 09:53:36;;;;;;;7.95;7.00;;;31.40;49.50;;;;;;5063358;28;20198;-88
2021/06/19 09:56:04;;;;;;;7.40;6.80;;;31.50;49.00;;;;;;5044435;28;20215;-88
2021/06/19 09:58:41;;;;;;;8.02;7.03;;;31.70;47.90;;;;;;5063146;28;20180;-88
2021/06/19 10:01:07;;;;;;;10.93;7.70;;;31.90;46.40;;;;;;5063019;28;20183;-87
2021/06/19 10:03:49;;;;;;;8.25;6.63;;;31.90;47.20;;;;;;5062275;28;20219;-87
2021/06/19 10:06:15;;;;;;;8.95;7.60;;;32.20;47.40;;;;;;5058759;28;20216;-88
2021/06/19 10:08:44;;;;;;;9.73;7.60;;;32.50;45.70;;;;;;5062385;28;20196;-88
2021/06/19 10:11:10;;;;;;;12.23;7.63;;;32.30;47.30;;;;;;5064904;28;20180;-88
2021/06/19 10:13:36;;;;;;;8.10;7.30;;;32.60;45.80;;;;;;5065431;28;20204;-88
2021/06/19 10:16:03;;;;;;;8.70;7.82;;;32.70;47.10;;;;;;5047524;28;20207;-88
2021/06/19 10:18:30;;;;;;;8.40;7.53;;;32.40;46.80;;;;;;5064387;28;20655;-88
2021/06/19 10:20:56;;;;;;;16.30;8.57;;;32.50;48.00;;;;;;5044771;28;20172;-88
2021/06/19 10:23:21;;;;;;;10.90;7.97;;;32.50;46.50;;;;;;5043082;28;20291;-89
2021/06/19 10:25:48;;;;;;;8.90;7.95;;;32.90;45.60;;;;;;5059299;28;20215;-88
2021/06/19 10:28:18;;;;;;;11.10;7.90;;;33.10;46.20;;;;;;5043214;28;20307;-89
2021/06/19 10:30:44;;;;;;;11.60;8.43;;;33.10;46.40;;;;;;5042649;28;20255;-88
2021/06/19 10:33:30;;;;;;;10.93;8.02;;;33.30;46.40;;;;;;5043043;28;20231;-88
2021/06/19 10:36:01;;;;;;;10.70;8.23;;;33.40;46.30;;;;;;5059990;28;20204;-88
2021/06/19 10:38:27;;;;;;;8.93;8.02;;;33.40;46.50;;;;;;5060239;28;20199;-88
2021/06/19 10:40:57;;;;;;;9.18;8.38;;;33.60;45.90;;;;;;5042697;28;20184;-88
2021/06/19 10:43:26;;;;;;;10.18;8.32;;;33.80;44.40;;;;;;5036236;28;20218;-88
2021/06/19 10:45:54;;;;;;;9.52;8.63;;;34.00;45.20;;;;;;5052769;28;20188;-88
2021/06/19 10:48:34;;;;;;;10.88;8.43;;;34.20;44.30;;;;;;5051952;28;20530;-88
2021/06/19 10:51:19;;;;;;;11.32;8.45;;;34.30;43.20;;;;;;5038501;28;20271;-88
2021/06/19 10:54:11;;;;;;;9.25;8.32;;;34.00;44.90;;;;;;5054201;28;20227;-89
2021/06/19 10:56:56;;;;;;;11.98;8.75;;;34.30;42.70;;;;;;5049580;28;20541;-85
2021/06/19 10:59:23;;;;;;;9.90;8.93;;;34.40;42.10;;;;;;5054246;28;20198;-88
2021/06/19 11:01:50;;;;;;;9.75;8.35;;;34.60;42.50;;;;;;5035621;28;20212;-89
2021/06/19 11:04:35;;;;;;;9.98;9.10;;;34.70;42.30;;;;;;5054677;28;20211;-89
2021/06/19 11:07:02;;;;;;;10.73;8.02;;;34.70;42.10;;;;;;5054371;28;20196;-88
2021/06/19 11:09:48;;;;;;;9.82;8.25;;;34.90;42.30;;;;;;5053262;28;20188;-89
2021/06/19 11:12:24;;;;;;;9.82;8.65;;;35.10;42.70;;;;;;5057000;28;20186;-89
2021/06/19 11:14:51;;;;;;;10.18;8.82;;;35.20;41.50;;;;;;5050913;28;20193;-89
2021/06/19 11:17:23;;;;;;;10.10;8.45;;;35.10;42.70;;;;;;5053588;28;20202;-89
2021/06/19 11:19:55;;;;;;;12.25;9.13;;;35.20;41.30;;;;;;5036016;28;20189;-89
2021/06/19 11:22:25;;;;;;;11.25;9.32;;;35.10;42.40;;;;;;5058150;28;20184;-89
2021/06/19 11:25:10;;;;;;;10.68;8.70;;;35.20;42.70;;;;;;5034098;28;20249;-89
2021/06/19 11:27:55;;;;;;;12.07;8.90;;;35.30;42.70;;;;;;5064279;28;20182;-89
2021/06/19 11:30:39;;;;;;;11.98;9.85;;;35.20;42.10;;;;;;5055652;28;20585;-89
2021/06/19 11:33:25;;;;;;;9.98;8.68;;;34.80;42.40;;;;;;5056592;28;20235;-89
2021/06/19 11:36:00;;;;;;;10.50;9.50;;;35.10;42.40;;;;;;5049028;28;20207;-89
2021/06/19 11:38:50;;;;;;;9.40;8.60;;;35.40;41.40;;;;;;5044077;28;20219;-89
2021/06/19 11:41:19;;;;;;;11.38;9.10;;;35.70;40.80;;;;;;5030494;28;20687;-89
2021/06/19 11:43:45;;;;;;;12.15;9.45;;;35.90;39.20;;;;;;5052754;28;20567;-89
2021/06/19 11:46:12;;;;;;;11.98;9.85;;;36.00;39.70;;;;;;5062465;28;20191;-89
2021/06/19 11:48:55;;;;;;;12.00;9.27;;;35.90;39.20;;;;;;5030188;28;20242;-90
2021/06/19 11:51:28;;;;;;;12.35;9.88;;;35.70;40.30;;;;;;5053411;28;20191;-89
2021/06/19 11:53:55;;;;;;;13.43;10.40;;;35.70;41.10;;;;;;5038622;28;20215;-89
2021/06/19 11:56:25;;;;;;;12.98;9.88;;;35.60;40.20;;;;;;5014467;28;20218;-89
2021/06/19 11:59:03;;;;;;;12.82;9.77;;;35.60;40.00;;;;;;5045575;28;20191;-89
2021/06/19 12:01:39;;;;;;;14.30;9.85;;;36.00;39.30;;;;;;5026742;28;20302;-90
2021/06/19 12:04:27;;;;;;;13.15;8.82;;;36.30;38.00;;;;;;5022804;28;20219;-90
2021/06/19 12:06:55;;;;;;;13.07;9.18;;;36.30;38.30;;;;;;5057952;28;20237;-90
2021/06/19 12:09:27;;;;;;;11.98;9.90;;;36.70;36.90;;;;;;5046010;28;20214;-90
2021/06/19 12:12:11;;;;;;;14.25;10.20;;;36.40;37.50;;;;;;5076019;28;20259;-91
2021/06/19 12:14:39;;;;;;;13.05;9.23;;;36.90;37.90;;;;;;5052383;28;20234;-90
2021/06/19 12:17:07;;;;;;;11.10;10.00;;;37.00;37.70;;;;;;5053851;28;20482;-90
2021/06/19 12:19:36;;;;;;;15.65;10.15;;;37.10;37.50;;;;;;5027400;28;20208;-90
2021/06/19 12:22:06;;;;;;;13.48;10.63;;;36.90;37.70;;;;;;5045998;28;20189;-91
2021/06/19 12:24:40;;;;;;;16.60;10.45;;;37.00;38.70;;;;;;5066296;28;20662;-90
2021/06/19 12:27:14;;;;;;;13.82;10.57;;;37.20;38.90;;;;;;5032159;28;20196;-90
2021/06/19 12:29:44;;;;;;;12.77;10.32;;;37.50;38.20;;;;;;5032573;28;20674;-90
2021/06/19 12:32:31;;;;;;;12.23;11.13;;;37.90;38.10;;;;;;5033726;28;20528;-90
2021/06/19 12:34:59;;;;;;;11.60;10.48;;;37.50;37.60;;;;;;5032759;28;20176;-90
2021/06/19 12:37:35;;;;;;;13.30;10.90;;;37.20;38.20;;;;;;5049364;28;20212;-90
2021/06/19 12:40:03;;;;;;;13.82;11.07;;;36.50;38.10;;;;;;5056956;28;20429;-89
2021/06/19 12:42:51;;;;;;;17.13;10.65;;;36.00;39.40;;;;;;5057310;28;20176;-90
2021/06/19 12:45:23;;;;;;;11.45;10.40;;;35.80;38.70;;;;;;5049453;28;20194;-90